Time;durP1;ratioP1;P1;durP2;ratioP2;P2;SDS_P1;SDS_P2;PMS_P1;PMS_P2;Temp;Humidity;BMP_temperature;BMP_pressure;BME280_temperature;BME280_humidity;BME280_pressure;Samples;Min_cycle;Max_cycle;Signal;HPM_P1;HPM_P2
2023/05/31 00:00:15;;;;;;;9.35;5.60;;;9.50;99.90;;;;;;4988719;28;20454;-82
2023/05/31 00:02:41;;;;;;;9.93;5.43;;;9.50;99.90;;;;;;4970824;28;20046;-82
2023/05/31 00:05:07;;;;;;;10.68;6.05;;;9.40;99.90;;;;;;4971236;28;20030;-82
2023/05/31 00:07:33;;;;;;;12.85;5.90;;;9.40;99.90;;;;;;4973219;28;20053;-82
2023/05/31 00:09:58;;;;;;;9.63;5.70;;;9.40;99.90;;;;;;4960357;28;20034;-82
2023/05/31 00:12:24;;;;;;;9.38;5.53;;;9.20;99.90;;;;;;4959661;28;20142;-82
2023/05/31 00:14:50;;;;;;;9.10;5.60;;;9.10;99.90;;;;;;4970056;28;20116;-82
2023/05/31 00:17:18;;;;;;;9.70;6.25;;;9.20;99.90;;;;;;4989621;28;20402;-82
2023/05/31 00:19:44;;;;;;;11.10;6.20;;;9.20;99.90;;;;;;4988258;28;20964;-82
2023/05/31 00:22:10;;;;;;;8.43;5.45;;;9.10;99.90;;;;;;4972994;28;20073;-82
2023/05/31 00:24:36;;;;;;;11.50;5.95;;;9.20;99.90;;;;;;4975933;28;20121;-82
2023/05/31 00:27:02;;;;;;;9.20;5.72;;;9.20;99.90;;;;;;4976099;28;20050;-83
2023/05/31 00:29:28;;;;;;;10.55;6.57;;;9.10;99.90;;;;;;4959805;28;20034;-82
2023/05/31 00:31:56;;;;;;;10.23;5.97;;;9.10;99.90;;;;;;4976760;28;20401;-82
2023/05/31 00:34:24;;;;;;;13.20;6.20;;;9.10;99.90;;;;;;4988987;28;20050;-82
2023/05/31 00:36:49;;;;;;;9.98;5.78;;;9.00;99.90;;;;;;4988824;28;20289;-82
2023/05/31 00:39:15;;;;;;;9.02;5.55;;;9.10;99.90;;;;;;4974363;28;20413;-82
2023/05/31 00:41:40;;;;;;;10.63;6.10;;;9.00;99.90;;;;;;4977392;28;20397;-83
2023/05/31 00:44:06;;;;;;;12.40;6.13;;;9.00;99.90;;;;;;4956088;28;20415;-82
2023/05/31 00:46:34;;;;;;;10.30;6.32;;;9.00;99.90;;;;;;4985672;28;20528;-82
2023/05/31 00:49:02;;;;;;;11.38;5.88;;;9.00;99.90;;;;;;4968766;28;20645;-82
2023/05/31 00:51:31;;;;;;;8.05;5.82;;;8.90;99.90;;;;;;4990402;28;20397;-82
2023/05/31 00:53:58;;;;;;;9.70;5.53;;;8.90;99.90;;;;;;4971496;28;20043;-82
2023/05/31 00:56:24;;;;;;;10.27;6.00;;;8.80;99.90;;;;;;4959307;28;20146;-82
2023/05/31 00:58:52;;;;;;;11.52;6.25;;;8.80;99.90;;;;;;4974616;28;20102;-82
2023/05/31 01:01:19;;;;;;;12.88;6.25;;;8.80;99.90;;;;;;4985563;28;20494;-82
2023/05/31 01:03:46;;;;;;;9.73;6.10;;;8.70;99.90;;;;;;4975383;28;20058;-82
2023/05/31 01:06:11;;;;;;;8.07;5.03;;;8.60;99.90;;;;;;4974179;28;20126;-83
2023/05/31 01:08:39;;;;;;;11.48;6.32;;;8.60;99.90;;;;;;4976375;28;20033;-83
2023/05/31 01:11:40;;;;;;;10.52;5.38;;;8.60;99.90;;;;;;4970614;28;20410;-82
2023/05/31 01:14:43;;;;;;;11.77;6.65;;;8.60;99.90;;;;;;4975653;28;20092;-83
2023/05/31 01:17:14;;;;;;;115.25;8.48;;;8.60;99.90;;;;;;4975249;28;20502;-83
2023/05/31 01:19:48;;;;;;;11.48;6.40;;;8.50;99.90;;;;;;4986133;28;20114;-83
2023/05/31 01:22:35;;;;;;;9.97;6.30;;;8.50;99.90;;;;;;4973487;28;20051;-82
2023/05/31 01:25:52;;;;;;;9.98;6.60;;;8.50;99.90;;;;;;4976596;28;20128;-83
2023/05/31 01:28:18;;;;;;;63.45;7.75;;;8.40;99.90;;;;;;4958261;28;20250;-82
2023/05/31 01:30:46;;;;;;;9.05;5.20;;;8.30;99.90;;;;;;4973039;28;20038;-82
2023/05/31 01:33:13;;;;;;;11.27;6.35;;;8.30;99.90;;;;;;4975609;28;20038;-82
2023/05/31 01:35:39;;;;;;;11.50;5.15;;;8.30;99.90;;;;;;4973371;28;20109;-83
2023/05/31 01:38:08;;;;;;;289.33;14.07;;;8.30;99.90;;;;;;4971847;28;20621;-82
2023/05/31 01:40:35;;;;;;;12.63;7.75;;;8.30;99.90;;;;;;4972317;28;20053;-83
2023/05/31 01:43:03;;;;;;;12.82;7.38;;;8.30;99.90;;;;;;4970469;28;20052;-82
2023/05/31 01:45:30;;;;;;;12.73;7.72;;;8.30;99.90;;;;;;4956742;28;20038;-82
2023/05/31 01:48:04;;;;;;;11.23;7.35;;;8.30;99.90;;;;;;4975886;28;20042;-82
2023/05/31 01:50:38;;;;;;;11.00;6.93;;;8.30;99.90;;;;;;4985655;28;20478;-82
2023/05/31 01:53:04;;;;;;;13.88;6.90;;;8.10;99.90;;;;;;4969309;28;20260;-82
2023/05/31 01:55:30;;;;;;;6.15;4.03;;;8.10;99.90;;;;;;4968970;28;20058;-83
2023/05/31 01:57:57;;;;;;;21.48;6.32;;;8.00;99.90;;;;;;4971790;28;20049;-82
2023/05/31 02:00:24;;;;;;;53.05;7.72;;;7.90;99.90;;;;;;4978231;28;20314;-83
2023/05/31 02:02:55;;;;;;;12.13;2.97;;;7.80;99.90;;;;;;4994610;28;20125;-82
2023/05/31 02:05:21;;;;;;;18.13;3.55;;;7.70;99.90;;;;;;4978371;28;20046;-82
2023/05/31 02:07:49;;;;;;;25.80;4.80;;;7.80;99.90;;;;;;4989501;28;20050;-83
2023/05/31 02:10:15;;;;;;;21.55;4.60;;;7.80;99.90;;;;;;4990635;28;20046;-83
2023/05/31 02:12:41;;;;;;;10.25;5.85;;;7.70;99.90;;;;;;4976139;28;20054;-83
2023/05/31 02:15:12;;;;;;;11.70;6.82;;;7.70;99.90;;;;;;4992791;28;20054;-83
2023/05/31 02:17:44;;;;;;;16.58;7.43;;;7.80;99.90;;;;;;4979630;28;20045;-83
2023/05/31 02:20:14;;;;;;;13.77;7.85;;;7.90;99.90;;;;;;4977470;28;20042;-83
2023/05/31 02:22:44;;;;;;;15.30;7.75;;;8.00;99.90;;;;;;4989986;28;20389;-83
2023/05/31 02:25:12;;;;;;;17.00;8.30;;;8.00;99.90;;;;;;4975531;28;20038;-83
2023/05/31 02:27:42;;;;;;;17.60;9.05;;;8.00;99.90;;;;;;4970553;28;20035;-83
2023/05/31 02:30:11;;;;;;;14.20;8.32;;;8.00;99.90;;;;;;4976702;28;20352;-83
2023/05/31 02:32:41;;;;;;;20.33;9.00;;;8.00;99.90;;;;;;4969056;28;20043;-83
2023/05/31 02:35:09;;;;;;;7.65;4.68;;;8.00;99.90;;;;;;4976984;28;20118;-83
2023/05/31 02:37:36;;;;;;;6.90;4.45;;;7.80;99.90;;;;;;4974938;28;20041;-83
2023/05/31 02:40:09;;;;;;;16.95;9.10;;;7.70;99.90;;;;;;4959346;28;20494;-83
2023/05/31 02:42:40;;;;;;;9.57;6.47;;;7.80;99.90;;;;;;4970165;28;20039;-83
2023/05/31 02:45:09;;;;;;;5.80;4.60;;;7.80;99.90;;;;;;4977122;28;20050;-83
2023/05/31 02:47:37;;;;;;;17.90;8.55;;;7.70;99.90;;;;;;4974065;28;20065;-82
2023/05/31 02:50:10;;;;;;;13.25;7.72;;;7.70;99.90;;;;;;4973096;28;20509;-83
2023/05/31 02:52:38;;;;;;;16.85;8.57;;;7.60;99.90;;;;;;4993308;28;20050;-83
2023/05/31 02:55:05;;;;;;;10.00;6.22;;;7.60;99.90;;;;;;4977398;28;20093;-83
2023/05/31 02:57:34;;;;;;;13.65;7.50;;;7.50;99.90;;;;;;4970937;28;20042;-83
2023/05/31 03:00:11;;;;;;;15.02;8.50;;;7.50;99.90;;;;;;4953574;28;20181;-83
2023/05/31 03:02:40;;;;;;;9.40;5.30;;;7.70;99.90;;;;;;4989656;28;20042;-82
2023/05/31 03:05:08;;;;;;;17.92;8.77;;;7.60;99.90;;;;;;4973830;28;20077;-83
2023/05/31 03:07:35;;;;;;;13.75;6.70;;;7.60;99.90;;;;;;4976934;28;20065;-83
2023/05/31 03:10:03;;;;;;;10.25;6.28;;;7.60;99.90;;;;;;4956762;28;20054;-83
2023/05/31 03:12:30;;;;;;;22.20;7.05;;;7.40;99.90;;;;;;4988946;28;20054;-83
2023/05/31 03:14:56;;;;;;;11.77;6.57;;;7.40;99.90;;;;;;4973567;28;20046;-83
2023/05/31 03:17:22;;;;;;;10.45;5.72;;;7.30;99.90;;;;;;4991766;28;20038;-83
2023/05/31 03:19:47;;;;;;;19.13;7.13;;;7.30;99.90;;;;;;4976100;28;20121;-82
2023/05/31 03:22:16;;;;;;;13.05;7.50;;;7.30;99.90;;;;;;4975641;28;20050;-82
2023/05/31 03:24:42;;;;;;;10.98;5.10;;;7.30;99.90;;;;;;4972266;28;20580;-83
2023/05/31 03:27:08;;;;;;;17.13;6.47;;;7.30;99.90;;;;;;4957433;28;20034;-83
2023/05/31 03:29:39;;;;;;;10.90;6.32;;;7.30;99.90;;;;;;4988894;28;20093;-83
2023/05/31 03:32:05;;;;;;;15.98;6.40;;;7.30;99.90;;;;;;4972227;28;20434;-83
2023/05/31 03:34:32;;;;;;;14.40;5.53;;;7.30;99.90;;;;;;4961978;28;20038;-83
2023/05/31 03:36:58;;;;;;;16.73;7.07;;;7.40;99.90;;;;;;4990226;28;20042;-83
2023/05/31 03:39:24;;;;;;;28.75;10.15;;;7.70;99.90;;;;;;4959093;28;20144;-82
2023/05/31 03:41:50;;;;;;;24.52;10.10;;;7.80;99.90;;;;;;4972432;28;20097;-82
2023/05/31 03:44:15;;;;;;;21.45;8.93;;;7.90;99.90;;;;;;4972862;28;20532;-83
2023/05/31 03:46:41;;;;;;;19.52;8.25;;;7.90;99.90;;;;;;4959356;28;20316;-82
2023/05/31 03:49:07;;;;;;;27.63;8.68;;;7.90;99.90;;;;;;4974081;28;20042;-83
2023/05/31 03:51:32;;;;;;;13.73;7.53;;;7.90;99.90;;;;;;4974394;28;20120;-83
2023/05/31 03:53:58;;;;;;;30.75;8.77;;;7.90;99.90;;;;;;4987234;28;20445;-83
2023/05/31 03:56:24;;;;;;;19.02;7.63;;;8.00;99.90;;;;;;4974058;28;20540;-82
2023/05/31 03:58:49;;;;;;;20.63;8.18;;;8.00;99.90;;;;;;4972586;28;20046;-82
2023/05/31 04:01:18;;;;;;;18.58;8.15;;;8.10;99.90;;;;;;4988512;28;20360;-82
2023/05/31 04:03:44;;;;;;;41.75;10.77;;;8.20;99.90;;;;;;4969348;28;20034;-83
2023/05/31 04:06:10;;;;;;;21.02;8.18;;;8.30;99.90;;;;;;4975083;28;20096;-82
2023/05/31 04:08:36;;;;;;;25.58;8.30;;;8.30;99.90;;;;;;4972489;28;20041;-83
2023/05/31 04:11:02;;;;;;;17.60;8.13;;;8.40;99.90;;;;;;4968644;28;20050;-83
2023/05/31 04:13:28;;;;;;;22.70;8.65;;;8.50;99.90;;;;;;4973899;28;20522;-83
2023/05/31 04:15:54;;;;;;;17.83;8.45;;;8.60;99.90;;;;;;4975796;28;20073;-82
2023/05/31 04:18:23;;;;;;;16.27;8.35;;;8.70;99.90;;;;;;4989976;28;20038;-83
2023/05/31 04:20:48;;;;;;;19.85;8.88;;;8.70;99.90;;;;;;4974963;28;20054;-83
2023/05/31 04:23:14;;;;;;;21.58;8.82;;;8.80;99.90;;;;;;4972545;28;20117;-83
2023/05/31 04:25:40;;;;;;;30.80;9.32;;;9.00;99.90;;;;;;4974913;28;20049;-82
2023/05/31 04:28:05;;;;;;;23.13;9.63;;;9.10;99.90;;;;;;4969040;28;20117;-83
2023/05/31 04:30:31;;;;;;;22.25;10.00;;;9.20;99.90;;;;;;4969895;28;20041;-82
2023/05/31 04:32:58;;;;;;;21.75;9.18;;;9.30;99.90;;;;;;4973270;28;20046;-83
2023/05/31 04:35:28;;;;;;;26.13;10.15;;;9.40;99.90;;;;;;4977932;28;20046;-83
2023/05/31 04:37:58;;;;;;;21.65;10.18;;;9.60;99.90;;;;;;4973964;28;20042;-83
2023/05/31 04:40:25;;;;;;;23.00;10.30;;;9.70;99.90;;;;;;4971608;28;20128;-83
2023/05/31 04:42:50;;;;;;;20.65;10.18;;;9.90;99.90;;;;;;4975725;28;20054;-83
2023/05/31 04:45:16;;;;;;;24.50;11.27;;;10.00;99.90;;;;;;4969677;28;20125;-82
2023/05/31 04:47:45;;;;;;;26.95;10.25;;;10.20;99.90;;;;;;4974123;28;20038;-83
2023/05/31 04:50:13;;;;;;;19.48;10.25;;;10.40;99.90;;;;;;4989524;28;20042;-82
2023/05/31 04:52:40;;;;;;;25.58;10.98;;;10.50;99.90;;;;;;4972402;28;20546;-82
2023/05/31 04:55:06;;;;;;;24.52;11.23;;;10.70;99.90;;;;;;4982609;28;20042;-83
2023/05/31 04:57:35;;;;;;;24.35;10.85;;;11.00;99.90;;;;;;4986731;28;20046;-83
2023/05/31 05:00:01;;;;;;;29.17;11.70;;;11.10;99.90;;;;;;4975136;28;20145;-82
2023/05/31 05:02:26;;;;;;;28.15;12.13;;;11.20;99.90;;;;;;4974396;28;20374;-82
2023/05/31 05:04:55;;;;;;;29.27;12.65;;;11.30;99.90;;;;;;4989414;28;20498;-82
2023/05/31 05:07:21;;;;;;;27.58;12.32;;;11.50;99.90;;;;;;4973281;28;20042;-82
2023/05/31 05:09:46;;;;;;;21.00;10.93;;;11.60;99.90;;;;;;4974755;28;20543;-82
2023/05/31 05:12:12;;;;;;;22.13;10.52;;;11.80;99.90;;;;;;4968528;28;20050;-82
2023/05/31 05:14:38;;;;;;;20.05;10.48;;;11.90;99.90;;;;;;4972184;28;20050;-83
2023/05/31 05:17:04;;;;;;;22.30;9.65;;;12.00;99.90;;;;;;4992418;28;20413;-82
2023/05/31 05:19:30;;;;;;;24.25;10.45;;;12.10;99.90;;;;;;4973357;28;20069;-82
2023/05/31 05:21:55;;;;;;;19.70;9.90;;;12.20;99.90;;;;;;4970884;28;20069;-82
2023/05/31 05:24:21;;;;;;;21.27;9.63;;;12.30;99.90;;;;;;4974765;28;20042;-82
2023/05/31 05:26:46;;;;;;;19.23;8.50;;;12.30;99.90;;;;;;4989900;28;20042;-82
2023/05/31 05:29:12;;;;;;;20.65;9.77;;;12.50;99.90;;;;;;4971845;28;20121;-82
2023/05/31 05:31:38;;;;;;;20.75;9.70;;;12.60;99.90;;;;;;4973693;28;20066;-82
2023/05/31 05:34:07;;;;;;;19.92;9.00;;;12.50;99.90;;;;;;4955350;28;20133;-83
2023/05/31 05:36:32;;;;;;;20.00;9.30;;;12.70;99.90;;;;;;4990672;28;20046;-82
2023/05/31 05:39:03;;;;;;;14.05;8.63;;;12.70;99.90;;;;;;4988962;28;20034;-82
2023/05/31 05:41:30;;;;;;;18.88;8.85;;;12.70;99.90;;;;;;4976239;28;20050;-82
2023/05/31 05:43:59;;;;;;;18.67;8.95;;;12.90;99.90;;;;;;4980551;28;20088;-82
2023/05/31 05:46:28;;;;;;;16.63;8.27;;;13.00;99.90;;;;;;4963259;28;20038;-82
2023/05/31 05:48:53;;;;;;;19.45;8.63;;;13.10;99.90;;;;;;4979841;28;20042;-82
2023/05/31 05:51:19;;;;;;;16.23;8.30;;;13.10;99.90;;;;;;4976936;28;20050;-82
2023/05/31 05:53:45;;;;;;;17.08;8.32;;;13.30;99.90;;;;;;4975874;28;20046;-82
2023/05/31 05:56:11;;;;;;;19.27;9.25;;;13.30;99.90;;;;;;4973732;28;20049;-82
2023/05/31 05:58:40;;;;;;;21.70;9.07;;;13.50;99.90;;;;;;4971818;28;20088;-82
2023/05/31 06:01:06;;;;;;;18.17;9.05;;;13.50;99.90;;;;;;4974588;28;20082;-82
2023/05/31 06:03:32;;;;;;;18.00;7.53;;;13.40;99.90;;;;;;4979220;28;20049;-82
2023/05/31 06:05:57;;;;;;;14.38;8.23;;;13.50;99.90;;;;;;4995923;28;20489;-82
2023/05/31 06:08:23;;;;;;;16.90;8.75;;;13.60;99.90;;;;;;4973605;28;20034;-82
2023/05/31 06:10:49;;;;;;;12.70;7.50;;;13.80;99.90;;;;;;4975729;28;20023;-82
2023/05/31 06:13:15;;;;;;;15.30;7.75;;;13.80;99.90;;;;;;4970439;28;20066;-82
2023/05/31 06:15:41;;;;;;;15.73;7.60;;;13.80;99.90;;;;;;4993502;28;20387;-82
2023/05/31 06:18:08;;;;;;;13.82;6.50;;;13.80;99.90;;;;;;4995399;28;20060;-82
2023/05/31 06:20:34;;;;;;;18.20;7.72;;;13.80;99.90;;;;;;4963689;28;20163;-82
2023/05/31 06:23:00;;;;;;;16.67;6.70;;;13.80;99.90;;;;;;4987963;28;20571;-82
2023/05/31 06:25:26;;;;;;;12.77;6.40;;;13.80;99.90;;;;;;4972699;28;20038;-82
2023/05/31 06:27:51;;;;;;;14.77;6.50;;;13.80;99.90;;;;;;4975650;28;20130;-82
2023/05/31 06:30:17;;;;;;;13.85;6.97;;;13.80;99.90;;;;;;4975619;28;20417;-82
2023/05/31 06:32:43;;;;;;;11.50;6.07;;;14.00;99.90;;;;;;4972846;28;20109;-82
2023/05/31 06:35:09;;;;;;;10.30;5.90;;;14.10;99.90;;;;;;4971938;28;20053;-82
2023/05/31 06:37:35;;;;;;;12.05;5.75;;;14.30;99.90;;;;;;4986543;28;20046;-82
2023/05/31 06:40:01;;;;;;;13.65;5.70;;;14.30;99.90;;;;;;4961766;28;21610;-82
2023/05/31 06:42:27;;;;;;;13.18;5.65;;;14.40;99.90;;;;;;4979390;28;20043;-82
2023/05/31 06:44:52;;;;;;;11.43;5.40;;;14.50;99.90;;;;;;4974962;28;20204;-81
2023/05/31 06:47:18;;;;;;;11.10;5.93;;;14.40;99.90;;;;;;4990618;28;20042;-82
2023/05/31 06:49:44;;;;;;;12.35;5.57;;;14.50;99.90;;;;;;4994393;28;20113;-81
2023/05/31 06:52:12;;;;;;;14.07;5.53;;;14.60;99.90;;;;;;4978558;28;20064;-81
2023/05/31 06:54:38;;;;;;;13.18;6.32;;;14.70;99.90;;;;;;4964157;28;20038;-82
2023/05/31 06:57:05;;;;;;;10.73;5.43;;;14.60;99.90;;;;;;4991639;28;21078;-81
2023/05/31 06:59:31;;;;;;;11.80;5.60;;;14.90;99.90;;;;;;4976673;28;20652;-82
2023/05/31 07:01:56;;;;;;;11.15;6.50;;;14.90;99.90;;;;;;4968564;28;20050;-82
2023/05/31 07:04:22;;;;;;;10.48;6.03;;;15.10;99.90;;;;;;4991008;28;20525;-81
2023/05/31 07:06:48;;;;;;;15.70;5.82;;;15.00;99.90;;;;;;4971042;28;20034;-81
2023/05/31 07:09:14;;;;;;;10.32;5.00;;;15.20;99.90;;;;;;4976964;28;20038;-81
2023/05/31 07:11:42;;;;;;;11.45;5.72;;;15.20;99.90;;;;;;4967095;28;20046;-81
2023/05/31 07:14:09;;;;;;;10.02;5.13;;;15.30;99.90;;;;;;4971780;28;20046;-82
2023/05/31 07:16:35;;;;;;;10.80;4.82;;;15.40;99.90;;;;;;4972996;28;20320;-82
2023/05/31 07:19:01;;;;;;;10.45;5.03;;;15.60;99.90;;;;;;4977138;28;20304;-81
2023/05/31 07:21:27;;;;;;;8.02;4.90;;;15.70;99.90;;;;;;4953803;28;20043;-81
2023/05/31 07:23:58;;;;;;;11.10;5.00;;;15.80;99.90;;;;;;4971500;28;20042;-82
2023/05/31 07:26:23;;;;;;;11.73;5.53;;;15.90;99.90;;;;;;4968766;28;20430;-81
2023/05/31 07:28:52;;;;;;;12.18;5.30;;;16.00;99.90;;;;;;4990365;28;20536;-81
2023/05/31 07:31:20;;;;;;;12.13;4.97;;;16.20;99.90;;;;;;4976425;28;20046;-82
2023/05/31 07:33:45;;;;;;;12.15;4.82;;;16.00;99.90;;;;;;4969732;28;20311;-81
2023/05/31 07:36:15;;;;;;;11.57;4.78;;;15.80;99.90;;;;;;4977224;28;20352;-82
2023/05/31 07:38:41;;;;;;;9.52;4.53;;;16.10;99.90;;;;;;4969712;28;20038;-82
2023/05/31 07:41:06;;;;;;;8.77;4.57;;;16.40;99.90;;;;;;4972258;28;20434;-81
2023/05/31 07:43:32;;;;;;;10.68;5.10;;;16.50;99.90;;;;;;4977292;28;20393;-81
2023/05/31 07:45:58;;;;;;;10.30;4.50;;;16.50;99.90;;;;;;4972358;28;20042;-81
2023/05/31 07:48:24;;;;;;;8.48;4.60;;;16.70;99.90;;;;;;4977992;28;20040;-82
2023/05/31 07:50:50;;;;;;;11.10;4.78;;;16.30;99.90;;;;;;4975228;28;20045;-81
2023/05/31 07:53:19;;;;;;;7.85;4.55;;;16.70;99.90;;;;;;4969989;28;20077;-82
2023/05/31 07:55:45;;;;;;;9.13;4.50;;;16.70;99.90;;;;;;4969556;28;20101;-81
2023/05/31 07:58:13;;;;;;;11.07;4.78;;;16.60;99.90;;;;;;4978015;28;20109;-82
2023/05/31 08:00:39;;;;;;;10.60;4.30;;;16.60;99.90;;;;;;4974586;28;20046;-81
2023/05/31 08:03:05;;;;;;;10.65;4.35;;;16.80;99.90;;;;;;4988384;28;20038;-81
2023/05/31 08:05:34;;;;;;;7.22;3.83;;;16.90;99.90;;;;;;4980027;28;20030;-82
2023/05/31 08:08:00;;;;;;;9.02;4.40;;;17.00;99.90;;;;;;4958574;28;20396;-82
2023/05/31 08:10:26;;;;;;;6.90;3.50;;;17.10;99.90;;;;;;4973944;28;20045;-81
2023/05/31 08:12:51;;;;;;;8.35;3.78;;;17.20;99.90;;;;;;4955503;28;20054;-82
2023/05/31 08:15:17;;;;;;;8.35;3.92;;;17.20;99.90;;;;;;4970101;28;20443;-82
2023/05/31 08:17:43;;;;;;;10.38;3.92;;;17.40;99.90;;;;;;4974303;28;20089;-82
2023/05/31 08:20:10;;;;;;;8.45;3.40;;;17.10;99.90;;;;;;4975967;28;20046;-81
2023/05/31 08:22:36;;;;;;;8.75;3.50;;;17.40;99.90;;;;;;4973382;28;20069;-82
2023/05/31 08:25:02;;;;;;;6.88;3.50;;;17.50;99.90;;;;;;4975689;28;20485;-82
2023/05/31 08:27:28;;;;;;;8.07;3.40;;;17.40;99.90;;;;;;4973148;28;20137;-82
2023/05/31 08:29:53;;;;;;;8.48;3.30;;;17.30;99.90;;;;;;4976300;28;20141;-81
2023/05/31 08:32:20;;;;;;;10.50;3.55;;;17.50;99.90;;;;;;4973736;28;20553;-82
2023/05/31 08:34:46;;;;;;;5.70;3.40;;;17.60;99.90;;;;;;4985294;28;20458;-82
2023/05/31 08:37:12;;;;;;;7.35;3.30;;;18.00;99.90;;;;;;4970518;28;20116;-81
2023/05/31 08:39:38;;;;;;;9.63;3.78;;;18.00;99.90;;;;;;4970068;28;20089;-82
2023/05/31 08:42:07;;;;;;;8.60;3.50;;;18.10;99.90;;;;;;4973691;28;20077;-81
2023/05/31 08:44:33;;;;;;;7.38;3.47;;;18.50;99.90;;;;;;4973697;28;20042;-82
2023/05/31 08:47:04;;;;;;;9.05;3.92;;;18.20;99.90;;;;;;4969917;28;20401;-81
2023/05/31 08:49:33;;;;;;;5.80;3.25;;;18.10;99.90;;;;;;4974589;28;20096;-82
2023/05/31 08:52:03;;;;;;;9.75;3.80;;;18.10;99.90;;;;;;4967746;28;20045;-81
2023/05/31 08:54:29;;;;;;;5.30;3.17;;;18.40;99.90;;;;;;4969912;28;20033;-82
2023/05/31 08:56:55;;;;;;;7.80;2.70;;;18.80;99.90;;;;;;4987105;28;20038;-82
2023/05/31 08:59:22;;;;;;;9.98;3.53;;;18.50;99.90;;;;;;4973874;28;20545;-82
2023/05/31 09:01:49;;;;;;;6.75;3.33;;;18.50;99.90;;;;;;4970212;28;20548;-82
2023/05/31 09:04:15;;;;;;;6.57;3.00;;;18.40;99.90;;;;;;4990425;28;20070;-81
2023/05/31 09:06:41;;;;;;;7.53;3.20;;;18.50;99.90;;;;;;4958906;28;20568;-81
2023/05/31 09:09:08;;;;;;;6.47;3.03;;;19.20;99.90;;;;;;4958036;28;20035;-81
2023/05/31 09:11:40;;;;;;;8.07;3.42;;;19.10;99.90;;;;;;4977871;28;20093;-82
2023/05/31 09:14:08;;;;;;;7.18;3.20;;;19.50;99.90;;;;;;4977794;28;20137;-82
2023/05/31 09:16:35;;;;;;;6.78;3.25;;;19.30;99.90;;;;;;4977853;28;20144;-82
2023/05/31 09:19:03;;;;;;;9.35;3.60;;;19.10;99.90;;;;;;4980504;28;20053;-81
2023/05/31 09:21:29;;;;;;;9.55;3.53;;;19.50;99.90;;;;;;4977642;28;20378;-82
2023/05/31 09:23:59;;;;;;;6.53;3.83;;;19.40;99.90;;;;;;4973814;28;20053;-81
2023/05/31 09:26:26;;;;;;;8.75;3.63;;;19.30;99.90;;;;;;4979175;28;20497;-82
2023/05/31 09:28:53;;;;;;;7.45;3.30;;;19.30;99.90;;;;;;4976059;28;20557;-82
2023/05/31 09:31:19;;;;;;;6.50;3.80;;;18.70;99.90;;;;;;4965894;28;20462;-82
2023/05/31 09:33:51;;;;;;;6.35;3.35;;;19.80;99.90;;;;;;4981013;28;20046;-81
2023/05/31 09:36:31;;;;;;;9.27;4.20;;;20.30;99.90;;;;;;4962699;28;20046;-82
2023/05/31 09:39:01;;;;;;;9.52;3.53;;;19.80;99.90;;;;;;4975255;28;20042;-81
2023/05/31 09:41:27;;;;;;;6.75;3.20;;;19.40;99.90;;;;;;4975462;28;20038;-82
2023/05/31 09:43:53;;;;;;;10.02;3.50;;;19.70;99.90;;;;;;4982205;28;20039;-82
2023/05/31 09:46:20;;;;;;;10.90;4.05;;;20.20;99.90;;;;;;4994211;28;20053;-81
2023/05/31 09:49:03;;;;;;;13.05;4.00;;;20.50;99.90;;;;;;4996763;28;20042;-82
2023/05/31 09:51:34;;;;;;;8.95;4.00;;;20.30;99.90;;;;;;4976808;28;20038;-82
2023/05/31 09:54:10;;;;;;;8.68;3.97;;;20.00;99.90;;;;;;4990311;28;20174;-82
2023/05/31 09:56:37;;;;;;;11.85;4.30;;;19.90;99.90;;;;;;4973945;28;20056;-82
2023/05/31 09:59:03;;;;;;;10.65;4.10;;;19.80;99.90;;;;;;4964135;28;20046;-82
2023/05/31 10:01:31;;;;;;;9.23;4.28;;;20.10;99.90;;;;;;4979426;28;20046;-82
2023/05/31 10:03:59;;;;;;;7.75;4.38;;;19.40;99.90;;;;;;4960185;28;20039;-82
2023/05/31 10:06:28;;;;;;;10.25;4.35;;;20.00;99.90;;;;;;4993994;28;20034;-82
2023/05/31 10:08:54;;;;;;;11.73;4.55;;;19.60;99.90;;;;;;4975257;28;20050;-81
2023/05/31 10:11:26;;;;;;;9.15;4.22;;;19.60;99.90;;;;;;4979956;28;20042;-81
2023/05/31 10:13:59;;;;;;;12.43;4.85;;;19.80;99.90;;;;;;4979401;28;20656;-82
2023/05/31 10:16:26;;;;;;;11.90;4.35;;;19.90;99.90;;;;;;4995298;28;20518;-82
2023/05/31 10:19:02;;;;;;;9.23;4.90;;;20.50;99.90;;;;;;4980048;28;20052;-82
2023/05/31 10:21:28;;;;;;;12.35;5.43;;;19.30;99.90;;;;;;4977603;28;20038;-82
2023/05/31 10:24:02;;;;;;;9.70;5.32;;;19.40;99.90;;;;;;4989411;28;20038;-82
2023/05/31 10:27:08;;;;;;;10.68;5.20;;;19.30;99.90;;;;;;4975469;28;20034;-82
2023/05/31 10:29:41;;;;;;;10.80;5.43;;;18.90;99.90;;;;;;4950653;28;20043;-82
2023/05/31 10:32:17;;;;;;;9.60;5.55;;;19.20;99.90;;;;;;4975806;28;20208;-82
2023/05/31 10:34:44;;;;;;;10.18;5.57;;;19.30;99.90;;;;;;4993562;28;20062;-82
2023/05/31 10:37:10;;;;;;;9.90;5.10;;;19.30;99.90;;;;;;4973349;28;20101;-81
2023/05/31 10:39:49;;;;;;;9.77;5.35;;;18.80;99.90;;;;;;4973521;28;20039;-82
2023/05/31 10:42:36;;;;;;;11.82;5.38;;;19.10;99.90;;;;;;4978703;28;20512;-81
2023/05/31 10:45:37;;;;;;;10.43;5.55;;;19.90;99.90;;;;;;4959758;28;20439;-82
2023/05/31 10:48:28;;;;;;;10.20;5.13;;;20.10;99.90;;;;;;4968119;28;20167;-82
2023/05/31 10:50:59;;;;;;;9.95;5.65;;;19.70;99.90;;;;;;4976434;28;20469;-82
2023/05/31 10:53:35;;;;;;;9.85;5.30;;;19.40;99.90;;;;;;4961338;28;20046;-81
2023/05/31 10:56:13;;;;;;;7.93;5.47;;;19.40;99.90;;;;;;4976566;28;20104;-82
2023/05/31 10:58:38;;;;;;;7.95;5.45;;;19.30;99.90;;;;;;4974899;28;20145;-82
2023/05/31 11:01:10;;;;;;;9.85;5.40;;;19.50;99.90;;;;;;4974213;28;20153;-82
2023/05/31 11:03:46;;;;;;;12.95;5.85;;;19.70;99.90;;;;;;4973745;28;20038;-81
2023/05/31 11:06:14;;;;;;;8.88;5.47;;;19.70;99.90;;;;;;4960535;28;20042;-82
2023/05/31 11:09:08;;;;;;;9.20;5.30;;;19.60;99.90;;;;;;4953458;28;20050;-81
2023/05/31 11:11:33;;;;;;;10.80;5.85;;;19.40;99.90;;;;;;4976796;28;20057;-81
2023/05/31 11:14:07;;;;;;;11.05;5.20;;;19.30;99.90;;;;;;4973095;28;20062;-82
2023/05/31 11:16:53;;;;;;;9.23;5.10;;;20.30;99.90;;;;;;4989827;28;20034;-81
2023/05/31 11:19:28;;;;;;;12.30;5.47;;;20.80;99.90;;;;;;4973898;28;20042;-81
2023/05/31 11:21:55;;;;;;;9.60;5.55;;;19.90;99.90;;;;;;4972814;28;20042;-81
2023/05/31 11:24:25;;;;;;;10.80;5.50;;;20.00;99.90;;;;;;4973633;28;20065;-82
2023/05/31 11:26:56;;;;;;;10.02;5.78;;;19.90;99.90;;;;;;4989221;28;20077;-82
2023/05/31 11:29:22;;;;;;;9.80;5.38;;;19.60;99.90;;;;;;4977287;28;20481;-82
2023/05/31 11:31:51;;;;;;;12.98;6.15;;;19.80;99.90;;;;;;4976026;28;20451;-81
2023/05/31 11:34:31;;;;;;;11.05;5.80;;;20.00;99.90;;;;;;4971261;28;20094;-81
2023/05/31 11:36:59;;;;;;;9.45;5.43;;;19.50;99.90;;;;;;4973663;28;20038;-82
2023/05/31 11:39:25;;;;;;;11.13;5.13;;;19.90;99.90;;;;;;4991103;28;20050;-83
2023/05/31 11:41:55;;;;;;;8.27;5.10;;;20.20;99.90;;;;;;4976489;28;20052;-82
2023/05/31 11:44:30;;;;;;;9.30;5.28;;;19.80;99.90;;;;;;4958182;28;20270;-81
2023/05/31 11:47:02;;;;;;;8.55;5.00;;;19.90;99.90;;;;;;4973707;28;20344;-82
2023/05/31 11:49:30;;;;;;;9.85;4.88;;;19.80;99.90;;;;;;4973253;28;20042;-81
2023/05/31 11:51:57;;;;;;;11.05;4.85;;;19.70;99.90;;;;;;4973476;28;20045;-82
2023/05/31 11:54:29;;;;;;;9.85;4.63;;;19.60;99.90;;;;;;4977676;28;20050;-81
2023/05/31 11:57:06;;;;;;;8.80;4.82;;;19.50;99.90;;;;;;4974772;28;20084;-82
2023/05/31 11:59:33;;;;;;;14.43;5.05;;;19.50;99.90;;;;;;4991394;28;20030;-82
2023/05/31 12:02:04;;;;;;;7.57;4.35;;;20.30;99.90;;;;;;4956139;28;20058;-82
2023/05/31 12:04:37;;;;;;;11.32;4.75;;;20.40;99.90;;;;;;4975907;28;20097;-82
2023/05/31 12:07:06;;;;;;;9.70;4.05;;;20.70;99.90;;;;;;4987631;28;20105;-81
2023/05/31 12:09:34;;;;;;;8.32;4.43;;;20.90;1.00;;;;;;4964463;28;20042;-83
2023/05/31 12:12:03;;;;;;;8.75;3.83;;;20.10;99.90;;;;;;4988068;28;20117;-82
2023/05/31 12:14:29;;;;;;;7.95;3.80;;;19.90;99.90;;;;;;4938045;28;20050;-81
2023/05/31 12:16:55;;;;;;;8.82;3.95;;;20.90;99.90;;;;;;4923793;28;20141;-82
2023/05/31 12:19:21;;;;;;;8.20;4.20;;;20.40;99.90;;;;;;4937270;28;20114;-82
2023/05/31 12:21:51;;;;;;;10.27;4.22;;;20.50;99.90;;;;;;4939614;28;20035;-81
2023/05/31 12:24:17;;;;;;;6.80;3.47;;;20.10;99.90;;;;;;4919209;28;20134;-81
2023/05/31 12:26:45;;;;;;;8.70;3.92;;;20.60;99.90;;;;;;4956410;28;20127;-82
2023/05/31 12:29:18;;;;;;;6.20;3.47;;;21.60;99.90;;;;;;4953575;28;20870;-82
2023/05/31 12:31:45;;;;;;;6.32;3.78;;;20.80;60.70;;;;;;4940864;28;20043;-82
2023/05/31 12:34:18;;;;;;;7.63;3.03;;;20.50;99.90;;;;;;4940784;28;20647;-82
2023/05/31 12:36:49;;;;;;;7.30;3.22;;;20.80;99.90;;;;;;4921885;28;20042;-81
2023/05/31 12:39:24;;;;;;;9.80;3.95;;;21.70;99.90;;;;;;4947579;28;20059;-82
2023/05/31 12:41:51;;;;;;;9.07;3.90;;;21.50;1.00;;;;;;4940959;28;20049;-82
2023/05/31 12:44:21;;;;;;;6.18;3.35;;;21.20;99.90;;;;;;4937613;28;20405;-82
2023/05/31 12:46:48;;;;;;;7.53;3.75;;;20.30;99.90;;;;;;4921625;28;20074;-82
2023/05/31 12:49:26;;;;;;;7.43;3.70;;;20.80;99.90;;;;;;4958442;28;20035;-83